Time;durP1;ratioP1;P1;durP2;ratioP2;P2;SDS_P1;SDS_P2;PMS_P1;PMS_P2;Temp;Humidity;BMP_temperature;BMP_pressure;BME280_temperature;BME280_humidity;BME280_pressure;Samples;Min_cycle;Max_cycle;Signal;HPM_P1;HPM_P2
2024/01/16 00:02:08;;;;;;;8.95;1.80;;;;;;;;;;4798425;29;20146;-75
2024/01/16 00:04:36;;;;;;;7.60;1.77;;;;;;;;;;4812320;29;20531;-76
2024/01/16 00:07:02;;;;;;;10.43;1.77;;;;;;;;;;4807407;29;20055;-75
2024/01/16 00:09:29;;;;;;;7.65;1.67;;;;;;;;;;4803566;29;20055;-74
2024/01/16 00:11:55;;;;;;;5.13;1.80;;;;;;;;;;4801344;29;20509;-75
2024/01/16 00:14:21;;;;;;;6.40;2.00;;;;;;;;;;4802555;29;20599;-76
2024/01/16 00:16:48;;;;;;;4.22;1.58;;;;;;;;;;4793564;29;20055;-75
2024/01/16 00:19:15;;;;;;;7.85;1.83;;;;;;;;;;4797053;29;20063;-75
2024/01/16 00:21:42;;;;;;;5.60;1.63;;;;;;;;;;4791206;29;20896;-75
2024/01/16 00:24:08;;;;;;;6.65;1.42;;;;;;;;;;4791645;29;20090;-76
2024/01/16 00:26:35;;;;;;;12.10;2.45;;;;;;;;;;4792555;29;20082;-76
2024/01/16 00:29:02;;;;;;;5.40;1.45;;;;;;;;;;4784918;29;20059;-76
2024/01/16 00:31:28;;;;;;;5.95;1.38;;;;;;;;;;4800048;29;20070;-76
2024/01/16 00:33:55;;;;;;;5.80;1.70;;;;;;;;;;4794935;29;20840;-75
2024/01/16 00:36:21;;;;;;;7.80;1.80;;;;;;;;;;4793497;29;20050;-75
2024/01/16 00:38:47;;;;;;;3.38;1.45;;;;;;;;;;4790631;29;20709;-75
2024/01/16 00:41:14;;;;;;;8.75;1.23;;;;;;;;;;4813202;29;20126;-75
2024/01/16 00:43:42;;;;;;;7.13;1.30;;;;;;;;;;4800230;29;20157;-75
2024/01/16 00:46:09;;;;;;;8.35;1.00;;;;;;;;;;4807637;29;20050;-75
2024/01/16 00:48:36;;;;;;;6.07;1.40;;;;;;;;;;4799630;29;20055;-74
2024/01/16 00:51:02;;;;;;;6.00;1.00;;;;;;;;;;4798129;29;20573;-76
2024/01/16 00:53:29;;;;;;;8.35;1.35;;;;;;;;;;4812926;29;20066;-76
2024/01/16 00:55:55;;;;;;;8.55;1.40;;;;;;;;;;4796226;29;20058;-77
2024/01/16 00:58:22;;;;;;;5.60;1.40;;;;;;;;;;4792215;29;20055;-78
2024/01/16 01:00:49;;;;;;;12.20;1.40;;;;;;;;;;4797838;29;20470;-75
2024/01/16 01:03:15;;;;;;;8.52;1.73;;;;;;;;;;4790452;29;20055;-76
2024/01/16 01:05:42;;;;;;;4.65;1.27;;;;;;;;;;4781292;29;20142;-77
2024/01/16 01:08:09;;;;;;;11.60;1.85;;;;;;;;;;4787173;29;20221;-76
2024/01/16 01:10:35;;;;;;;7.65;1.88;;;;;;;;;;4797251;29;20093;-75
2024/01/16 01:13:02;;;;;;;6.13;1.70;;;;;;;;;;4799207;29;20086;-76
2024/01/16 01:15:28;;;;;;;8.82;1.67;;;;;;;;;;4804417;29;20118;-74
2024/01/16 01:17:55;;;;;;;7.45;1.60;;;;;;;;;;4799124;29;20043;-78
2024/01/16 01:20:22;;;;;;;8.98;2.42;;;;;;;;;;4789836;29;20833;-74
2024/01/16 01:22:48;;;;;;;4.50;1.50;;;;;;;;;;4798777;29;20066;-77
2024/01/16 01:25:14;;;;;;;6.40;1.45;;;;;;;;;;4798863;29;20078;-77
2024/01/16 01:27:41;;;;;;;4.55;1.73;;;;;;;;;;4793919;29;20150;-78
2024/01/16 01:30:11;;;;;;;4.45;1.60;;;;;;;;;;4798189;29;20067;-78
2024/01/16 01:32:38;;;;;;;9.50;1.77;;;;;;;;;;4797307;29;20051;-77
2024/01/16 01:35:05;;;;;;;6.38;2.03;;;;;;;;;;4794274;29;20067;-78
2024/01/16 01:37:32;;;;;;;6.72;1.85;;;;;;;;;;4797364;29;20050;-78
2024/01/16 01:39:58;;;;;;;5.38;1.85;;;;;;;;;;4801406;29;20116;-77
2024/01/16 01:42:25;;;;;;;5.75;2.10;;;;;;;;;;4795668;29;20087;-78
2024/01/16 01:44:51;;;;;;;8.43;2.25;;;;;;;;;;4805927;29;20081;-78
2024/01/16 01:47:17;;;;;;;6.22;2.08;;;;;;;;;;4786660;29;20543;-78
2024/01/16 01:49:44;;;;;;;8.48;2.40;;;;;;;;;;4773205;29;20046;-78
2024/01/16 01:52:11;;;;;;;11.40;2.80;;;;;;;;;;4805420;29;20143;-78
2024/01/16 01:54:38;;;;;;;4.93;2.10;;;;;;;;;;4800381;29;20054;-78
2024/01/16 01:57:05;;;;;;;9.80;2.60;;;;;;;;;;4793786;29;20054;-78
2024/01/16 01:59:31;;;;;;;7.57;2.38;;;;;;;;;;4812521;29;20059;-76
2024/01/16 02:01:58;;;;;;;13.40;2.28;;;;;;;;;;4783210;29;20054;-78
2024/01/16 02:04:26;;;;;;;10.57;2.47;;;;;;;;;;4812170;29;20069;-79
2024/01/16 02:06:53;;;;;;;9.27;2.10;;;;;;;;;;4786466;29;20416;-79
2024/01/16 02:09:20;;;;;;;8.35;2.45;;;;;;;;;;4799347;29;20065;-78
2024/01/16 02:11:46;;;;;;;7.32;2.47;;;;;;;;;;4796196;29;20130;-78
2024/01/16 02:14:13;;;;;;;5.10;2.72;;;;;;;;;;4798225;29;20059;-78
2024/01/16 02:16:44;;;;;;;8.20;3.10;;;;;;;;;;4794819;29;20065;-78
2024/01/16 02:19:11;;;;;;;6.25;3.00;;;;;;;;;;4791327;29;20058;-78
2024/01/16 02:21:48;;;;;;;8.63;2.97;;;;;;;;;;4795441;29;20047;-78
2024/01/16 02:24:17;;;;;;;13.38;3.50;;;;;;;;;;4792885;29;20679;-76
2024/01/16 02:26:43;;;;;;;14.27;4.13;;;;;;;;;;4805401;29;20150;-77
2024/01/16 02:29:10;;;;;;;7.85;3.83;;;;;;;;;;4791540;29;20058;-78
2024/01/16 02:31:37;;;;;;;7.72;4.03;;;;;;;;;;4784934;29;20098;-78
2024/01/16 02:34:04;;;;;;;9.00;4.00;;;;;;;;;;4799319;29;20089;-77
2024/01/16 02:36:30;;;;;;;7.60;4.43;;;;;;;;;;4795834;29;20074;-78
2024/01/16 02:38:57;;;;;;;10.85;4.78;;;;;;;;;;4796254;29;20142;-78
2024/01/16 02:41:23;;;;;;;14.68;5.95;;;;;;;;;;4796749;29;20054;-78
2024/01/16 02:43:50;;;;;;;12.15;5.95;;;;;;;;;;4801555;29;20524;-78
2024/01/16 02:46:16;;;;;;;8.57;5.85;;;;;;;;;;4799228;29;20152;-78
2024/01/16 02:48:42;;;;;;;11.10;6.35;;;;;;;;;;4799666;29;20058;-77
2024/01/16 02:51:09;;;;;;;11.93;6.13;;;;;;;;;;4813535;29;20142;-78
2024/01/16 02:53:36;;;;;;;14.77;6.70;;;;;;;;;;4801019;29;20532;-77
2024/01/16 02:56:02;;;;;;;18.45;6.88;;;;;;;;;;4795964;29;20059;-78
2024/01/16 02:58:30;;;;;;;11.68;6.55;;;;;;;;;;4792181;29;20061;-78
2024/01/16 03:00:57;;;;;;;15.90;6.30;;;;;;;;;;4792322;29;20107;-78
2024/01/16 03:03:26;;;;;;;11.85;5.80;;;;;;;;;;4803580;29;20082;-78
2024/01/16 03:05:53;;;;;;;13.30;5.78;;;;;;;;;;4787988;29;20043;-78
2024/01/16 03:08:19;;;;;;;10.77;5.00;;;;;;;;;;4796146;29;20055;-77
2024/01/16 03:10:46;;;;;;;9.40;5.10;;;;;;;;;;4789254;29;20055;-77
2024/01/16 03:13:13;;;;;;;13.05;5.35;;;;;;;;;;4788423;29;20550;-78
2024/01/16 03:15:40;;;;;;;14.88;4.75;;;;;;;;;;4799519;29;20071;-78
2024/01/16 03:18:07;;;;;;;12.98;4.28;;;;;;;;;;4791482;29;20760;-78
2024/01/16 03:20:33;;;;;;;9.40;4.32;;;;;;;;;;4786628;29;20050;-80
2024/01/16 03:23:00;;;;;;;8.93;4.05;;;;;;;;;;4787662;29;20485;-77
2024/01/16 03:25:26;;;;;;;7.70;4.13;;;;;;;;;;4787193;29;20047;-78
2024/01/16 03:27:53;;;;;;;11.98;5.13;;;;;;;;;;4785821;29;20047;-78
2024/01/16 03:30:20;;;;;;;15.25;5.90;;;;;;;;;;4787271;29;20063;-78
2024/01/16 03:32:47;;;;;;;9.50;5.35;;;;;;;;;;4796301;29;20055;-78
2024/01/16 03:35:13;;;;;;;15.07;4.90;;;;;;;;;;4793466;29;20054;-77
2024/01/16 03:37:39;;;;;;;12.45;5.07;;;;;;;;;;4795403;29;20059;-78
2024/01/16 03:40:07;;;;;;;11.00;4.93;;;;;;;;;;4806213;29;20088;-75
2024/01/16 03:42:33;;;;;;;9.13;5.30;;;;;;;;;;4795642;29;20063;-77
2024/01/16 03:45:00;;;;;;;9.00;4.40;;;;;;;;;;4791510;29;20083;-77
2024/01/16 03:47:26;;;;;;;7.43;3.65;;;;;;;;;;4795979;29;20043;-78
2024/01/16 03:49:53;;;;;;;11.05;4.20;;;;;;;;;;4797561;29;20054;-78
2024/01/16 03:52:19;;;;;;;10.85;4.20;;;;;;;;;;4771693;29;20051;-78
2024/01/16 03:54:45;;;;;;;14.85;4.03;;;;;;;;;;4781279;29;20079;-79
2024/01/16 03:57:12;;;;;;;10.77;3.47;;;;;;;;;;4795208;29;20055;-78
2024/01/16 03:59:38;;;;;;;10.88;3.42;;;;;;;;;;4799655;29;20680;-77
2024/01/16 04:02:05;;;;;;;12.20;3.60;;;;;;;;;;4809434;29;20074;-77
2024/01/16 04:04:31;;;;;;;7.18;3.00;;;;;;;;;;4792993;29;20154;-78
2024/01/16 04:06:58;;;;;;;8.52;3.00;;;;;;;;;;4783847;29;20119;-77
2024/01/16 04:09:24;;;;;;;9.98;3.10;;;;;;;;;;4797209;29;20059;-78
2024/01/16 04:11:51;;;;;;;10.65;2.88;;;;;;;;;;4796444;29;20074;-78
2024/01/16 04:14:18;;;;;;;5.07;2.30;;;;;;;;;;4801843;29;20138;-78
2024/01/16 04:16:45;;;;;;;6.18;2.28;;;;;;;;;;4796568;29;20043;-78
2024/01/16 04:19:11;;;;;;;4.35;2.25;;;;;;;;;;4794778;29;20432;-77
2024/01/16 04:21:38;;;;;;;5.13;2.17;;;;;;;;;;4805437;29;20058;-77
2024/01/16 04:24:04;;;;;;;8.50;2.70;;;;;;;;;;4801005;29;20051;-78
2024/01/16 04:26:31;;;;;;;5.93;2.25;;;;;;;;;;4809216;29;20078;-77
2024/01/16 04:28:58;;;;;;;7.13;2.67;;;;;;;;;;4794340;29;20107;-78
2024/01/16 04:31:24;;;;;;;9.23;2.58;;;;;;;;;;4795592;29;20078;-78
2024/01/16 04:33:50;;;;;;;6.55;2.50;;;;;;;;;;4787709;29;20107;-75
2024/01/16 04:36:17;;;;;;;4.55;2.13;;;;;;;;;;4789087;29;20075;-78
2024/01/16 04:38:43;;;;;;;9.38;2.30;;;;;;;;;;4788576;29;20058;-77
2024/01/16 04:41:10;;;;;;;5.78;2.92;;;;;;;;;;4806650;29;20140;-77
2024/01/16 04:43:36;;;;;;;9.20;2.60;;;;;;;;;;4804248;29;20057;-78
2024/01/16 04:46:03;;;;;;;9.40;2.60;;;;;;;;;;4792199;29;20051;-77
2024/01/16 04:48:29;;;;;;;9.88;2.90;;;;;;;;;;4791648;29;20055;-78
2024/01/16 04:50:56;;;;;;;9.65;3.00;;;;;;;;;;4782698;29;20047;-77
2024/01/16 04:53:23;;;;;;;6.18;3.22;;;;;;;;;;4810530;29;20490;-78
2024/01/16 04:55:50;;;;;;;8.43;3.10;;;;;;;;;;4791893;29;20055;-75
2024/01/16 04:58:16;;;;;;;13.15;3.78;;;;;;;;;;4787910;29;20051;-77
2024/01/16 05:00:42;;;;;;;6.57;3.30;;;;;;;;;;4783039;29;20727;-77
2024/01/16 05:03:09;;;;;;;8.82;3.70;;;;;;;;;;4784748;29;20094;-78
2024/01/16 05:05:35;;;;;;;8.82;3.80;;;;;;;;;;4799099;29;20066;-78
2024/01/16 05:08:02;;;;;;;11.23;4.13;;;;;;;;;;4792887;29;20055;-77
2024/01/16 05:10:30;;;;;;;14.65;3.58;;;;;;;;;;4815172;29;20258;-78
2024/01/16 05:12:56;;;;;;;6.38;3.55;;;;;;;;;;4800049;29;20065;-78
2024/01/16 05:15:23;;;;;;;9.55;3.67;;;;;;;;;;4777425;29;20078;-78
2024/01/16 05:17:49;;;;;;;10.15;3.42;;;;;;;;;;4798630;29;20059;-78
2024/01/16 05:20:16;;;;;;;5.50;3.30;;;;;;;;;;4795638;29;20047;-78
2024/01/16 05:22:42;;;;;;;7.10;3.28;;;;;;;;;;4798092;29;20051;-78
2024/01/16 05:25:09;;;;;;;7.68;3.20;;;;;;;;;;4795959;29;20111;-75
2024/01/16 05:27:35;;;;;;;8.40;2.70;;;;;;;;;;4802804;29;20065;-76
2024/01/16 05:30:02;;;;;;;9.73;2.90;;;;;;;;;;4793573;29;20612;-76
2024/01/16 05:32:28;;;;;;;6.55;2.10;;;;;;;;;;4792931;29;20059;-76
2024/01/16 05:34:55;;;;;;;8.68;2.10;;;;;;;;;;4799319;29;20412;-79
2024/01/16 05:37:22;;;;;;;9.93;3.17;;;;;;;;;;4795516;29;20062;-78
2024/01/16 05:39:48;;;;;;;6.05;1.80;;;;;;;;;;4801923;29;20134;-77
2024/01/16 05:42:15;;;;;;;10.75;2.35;;;;;;;;;;4802669;29;20629;-75
2024/01/16 05:44:42;;;;;;;6.38;1.77;;;;;;;;;;4791368;29;20094;-78
2024/01/16 05:47:08;;;;;;;5.38;1.73;;;;;;;;;;4801773;29;20069;-76
2024/01/16 05:49:35;;;;;;;6.97;1.60;;;;;;;;;;4794338;29;20146;-76
2024/01/16 05:52:02;;;;;;;8.30;1.80;;;;;;;;;;4812664;29;20661;-78
2024/01/16 05:54:28;;;;;;;8.40;1.55;;;;;;;;;;4792225;29;20138;-76
2024/01/16 05:56:55;;;;;;;7.95;1.45;;;;;;;;;;4794923;29;20051;-76
2024/01/16 05:59:21;;;;;;;8.13;2.47;;;;;;;;;;4811969;29;20428;-78
2024/01/16 06:01:49;;;;;;;9.00;1.85;;;;;;;;;;4790040;29;20054;-78
2024/01/16 06:04:15;;;;;;;8.10;1.83;;;;;;;;;;4800521;29;20062;-76
2024/01/16 06:06:47;;;;;;;8.30;2.22;;;;;;;;;;4807201;29;20055;-76
2024/01/16 06:09:14;;;;;;;3.58;2.00;;;;;;;;;;4797269;29;20054;-78
2024/01/16 06:11:41;;;;;;;7.38;2.10;;;;;;;;;;4793891;29;20070;-76
2024/01/16 06:14:08;;;;;;;6.38;2.22;;;;;;;;;;4789636;29;20118;-77
2024/01/16 06:16:34;;;;;;;8.10;2.15;;;;;;;;;;4795643;29;20062;-78
2024/01/16 06:19:01;;;;;;;12.18;2.17;;;;;;;;;;4787464;29;20078;-78
2024/01/16 06:21:27;;;;;;;9.57;2.42;;;;;;;;;;4800270;29;20055;-76
2024/01/16 06:23:54;;;;;;;14.48;3.03;;;;;;;;;;4788131;29;20055;-78
2024/01/16 06:26:20;;;;;;;6.72;2.60;;;;;;;;;;4796390;29;20055;-78
2024/01/16 06:28:47;;;;;;;10.73;2.70;;;;;;;;;;4792692;29;20065;-78
2024/01/16 06:31:13;;;;;;;10.18;2.65;;;;;;;;;;4801723;29;20059;-77
2024/01/16 06:33:40;;;;;;;6.03;2.67;;;;;;;;;;4799523;29;20057;-78
2024/01/16 06:36:07;;;;;;;9.10;3.30;;;;;;;;;;4793728;29;20051;-78
2024/01/16 06:38:33;;;;;;;9.68;3.28;;;;;;;;;;4807649;29;20109;-79
2024/01/16 06:41:00;;;;;;;7.32;2.90;;;;;;;;;;4796960;29;20051;-78
2024/01/16 06:43:27;;;;;;;6.82;2.90;;;;;;;;;;4787136;29;20054;-77
2024/01/16 06:45:53;;;;;;;10.73;2.78;;;;;;;;;;4801097;29;20517;-77
2024/01/16 06:48:20;;;;;;;10.13;2.42;;;;;;;;;;4794154;29;20066;-77
2024/01/16 06:50:46;;;;;;;6.22;2.50;;;;;;;;;;4796343;29;20042;-78
2024/01/16 06:53:13;;;;;;;8.10;2.33;;;;;;;;;;4781732;29;20076;-78
2024/01/16 06:55:42;;;;;;;8.20;2.28;;;;;;;;;;4792617;29;20556;-76
2024/01/16 06:58:10;;;;;;;9.30;2.63;;;;;;;;;;4789863;29;20090;-79
2024/01/16 07:00:36;;;;;;;4.50;2.35;;;;;;;;;;4802718;29;20055;-77
2024/01/16 07:03:03;;;;;;;9.20;2.90;;;;;;;;;;4798616;29;20093;-78
2024/01/16 07:05:29;;;;;;;9.43;2.40;;;;;;;;;;4795177;29;20514;-76
2024/01/16 07:07:56;;;;;;;6.03;2.10;;;;;;;;;;4795146;29;20540;-78
2024/01/16 07:10:24;;;;;;;7.50;2.38;;;;;;;;;;4791702;29;20055;-78
2024/01/16 07:12:51;;;;;;;8.73;2.65;;;;;;;;;;4785744;29;20649;-78
2024/01/16 07:15:18;;;;;;;8.80;2.40;;;;;;;;;;4798047;29;20514;-78
2024/01/16 07:17:45;;;;;;;9.77;2.63;;;;;;;;;;4791750;29;20126;-77
2024/01/16 07:20:11;;;;;;;4.72;2.55;;;;;;;;;;4792213;29;20082;-77
2024/01/16 07:22:41;;;;;;;5.85;2.88;;;;;;;;;;4804244;29;20130;-78
2024/01/16 07:25:07;;;;;;;14.38;3.95;;;;;;;;;;4798358;29;20147;-78
2024/01/16 07:27:34;;;;;;;12.68;4.13;;;;;;;;;;4805058;29;20150;-76
2024/01/16 07:30:01;;;;;;;8.48;4.40;;;;;;;;;;4789873;29;20078;-78
2024/01/16 07:32:28;;;;;;;9.48;3.55;;;;;;;;;;4801181;29;20055;-76
2024/01/16 07:34:57;;;;;;;10.90;4.25;;;;;;;;;;4790034;29;20091;-77
2024/01/16 07:37:24;;;;;;;12.52;5.18;;;;;;;;;;4798970;29;20134;-78
2024/01/16 07:39:50;;;;;;;10.95;5.43;;;;;;;;;;4800195;29;20867;-78
2024/01/16 07:42:17;;;;;;;12.18;5.70;;;;;;;;;;4796959;29;20457;-77
2024/01/16 07:44:43;;;;;;;11.90;5.30;;;;;;;;;;4801860;29;20051;-78
2024/01/16 07:47:10;;;;;;;17.52;6.53;;;;;;;;;;4806472;29;20062;-75
2024/01/16 07:49:36;;;;;;;14.35;5.75;;;;;;;;;;4811503;29;20050;-77
2024/01/16 07:52:03;;;;;;;12.50;6.18;;;;;;;;;;4799784;29;20051;-76
2024/01/16 07:54:30;;;;;;;14.52;6.43;;;;;;;;;;4798930;29;20145;-77
2024/01/16 07:56:57;;;;;;;14.63;5.72;;;;;;;;;;4799776;29;20055;-76
2024/01/16 07:59:24;;;;;;;13.05;6.38;;;;;;;;;;4807357;29;20054;-78
2024/01/16 08:01:50;;;;;;;17.88;7.50;;;;;;;;;;4792533;29;20059;-76
2024/01/16 08:04:17;;;;;;;12.90;7.07;;;;;;;;;;4792945;29;20094;-77
2024/01/16 08:06:45;;;;;;;12.20;7.13;;;;;;;;;;4812512;29;20103;-78
2024/01/16 08:09:12;;;;;;;16.80;7.37;;;;;;;;;;4801888;29;20089;-78
2024/01/16 08:11:39;;;;;;;12.98;7.18;;;;;;;;;;4795705;29;20059;-78
2024/01/16 08:14:06;;;;;;;17.17;7.07;;;;;;;;;;4800236;29;20058;-77
2024/01/16 08:16:32;;;;;;;13.43;7.25;;;;;;;;;;4792889;29;20118;-78
2024/01/16 08:18:59;;;;;;;12.52;6.75;;;;;;;;;;4793990;29;20077;-77
2024/01/16 08:21:26;;;;;;;15.93;7.05;;;;;;;;;;4792429;29;20049;-77
2024/01/16 08:23:52;;;;;;;16.67;6.68;;;;;;;;;;4808871;29;20719;-78
2024/01/16 08:26:19;;;;;;;11.60;6.53;;;;;;;;;;4821786;29;20055;-78
2024/01/16 08:28:46;;;;;;;16.50;6.93;;;;;;;;;;4808667;29;20046;-78
2024/01/16 08:31:12;;;;;;;16.25;7.07;;;;;;;;;;4795021;29;20086;-77
2024/01/16 08:33:39;;;;;;;14.30;6.10;;;;;;;;;;4795477;29;20043;-79
2024/01/16 08:36:13;;;;;;;19.20;6.18;;;;;;;;;;4794367;29;20066;-77
2024/01/16 08:38:40;;;;;;;16.17;5.47;;;;;;;;;;4815182;29;20042;-78
2024/01/16 08:41:07;;;;;;;11.35;5.32;;;;;;;;;;4793983;29;20054;-79
2024/01/16 08:43:33;;;;;;;10.82;5.95;;;;;;;;;;4797652;29;20133;-77
2024/01/16 08:46:00;;;;;;;18.67;5.80;;;;;;;;;;4791891;29;20450;-78
2024/01/16 08:48:26;;;;;;;10.23;5.57;;;;;;;;;;4800398;29;20620;-78
2024/01/16 08:50:54;;;;;;;14.10;5.45;;;;;;;;;;4797081;29;20158;-77
2024/01/16 08:53:23;;;;;;;9.25;5.43;;;;;;;;;;4803600;29;20065;-76
2024/01/16 08:55:50;;;;;;;11.85;5.00;;;;;;;;;;4795673;29;20074;-78
2024/01/16 08:58:16;;;;;;;9.55;5.40;;;;;;;;;;4792244;29;20047;-78
2024/01/16 09:00:43;;;;;;;12.18;4.60;;;;;;;;;;4809328;29;20050;-77
2024/01/16 09:03:09;;;;;;;10.90;4.80;;;;;;;;;;4800453;29;20054;-78
2024/01/16 09:05:38;;;;;;;14.05;5.43;;;;;;;;;;4794842;29;20062;-77
2024/01/16 09:08:05;;;;;;;14.25;5.43;;;;;;;;;;4814422;29;20111;-78
2024/01/16 09:10:34;;;;;;;13.07;4.80;;;;;;;;;;4790268;29;20054;-78
2024/01/16 09:13:01;;;;;;;10.63;4.75;;;;;;;;;;4795982;29;20063;-75
2024/01/16 09:15:27;;;;;;;10.80;4.40;;;;;;;;;;4805302;29;20067;-77
2024/01/16 09:17:54;;;;;;;13.73;5.25;;;;;;;;;;4801568;29;20055;-79
2024/01/16 09:20:20;;;;;;;9.70;4.80;;;;;;;;;;4794060;29;20051;-79
2024/01/16 09:22:47;;;;;;;13.35;4.80;;;;;;;;;;4782339;29;20051;-78
2024/01/16 09:25:14;;;;;;;12.45;5.13;;;;;;;;;;4811956;29;20051;-76
2024/01/16 09:27:40;;;;;;;12.40;4.95;;;;;;;;;;4788071;29;20791;-77
2024/01/16 09:30:07;;;;;;;13.02;5.03;;;;;;;;;;4800334;29;20061;-77
2024/01/16 09:32:35;;;;;;;11.90;4.55;;;;;;;;;;4803626;29;20047;-78
2024/01/16 09:35:04;;;;;;;9.45;4.07;;;;;;;;;;4809421;29;20459;-78
2024/01/16 09:37:30;;;;;;;15.63;4.82;;;;;;;;;;4800612;29;20063;-75
2024/01/16 09:39:57;;;;;;;10.02;4.18;;;;;;;;;;4794921;29;20062;-77
2024/01/16 09:42:24;;;;;;;9.07;4.20;;;;;;;;;;4800599;29;20432;-77
2024/01/16 09:44:51;;;;;;;14.15;3.97;;;;;;;;;;4806044;29;20062;-76
2024/01/16 09:47:18;;;;;;;9.10;4.10;;;;;;;;;;4802670;29;20074;-77
2024/01/16 09:49:46;;;;;;;12.10;4.07;;;;;;;;;;4812656;29;20059;-77
2024/01/16 09:52:12;;;;;;;14.70;4.50;;;;;;;;;;4792469;29;20061;-77
2024/01/16 09:54:39;;;;;;;13.23;5.13;;;;;;;;;;4795115;29;20050;-78
2024/01/16 09:57:10;;;;;;;14.80;4.55;;;;;;;;;;4793843;29;20551;-77
2024/01/16 09:59:39;;;;;;;;;;;;;;;;;;4797162;29;20416;-77
2024/01/16 10:02:07;;;;;;;10.88;4.00;;;;;;;;;;4795213;29;20020;-78
2024/01/16 10:04:34;;;;;;;;;;;;;;;;;;4787479;29;20058;-78
2024/01/16 10:07:01;;;;;;;9.48;4.00;;;;;;;;;;4795578;29;19925;-79
2024/01/16 10:09:28;;;;;;;8.98;3.80;;;;;;;;;;4804794;29;20061;-79
2024/01/16 10:11:54;;;;;;;15.35;4.15;;;;;;;;;;4814157;29;20057;-78
2024/01/16 10:14:21;;;;;;;10.40;4.07;;;;;;;;;;4794646;29;20111;-77
2024/01/16 10:17:05;;;;;;;7.70;3.78;;;;;;;;;;4795400;29;20447;-79
2024/01/16 10:19:32;;;;;;;8.98;3.85;;;;;;;;;;4793611;29;20046;-78
2024/01/16 10:22:19;;;;;;;12.45;4.20;;;;;;;;;;4801559;29;20059;-78
2024/01/16 10:25:03;;;;;;;11.50;4.22;;;;;;;;;;4797516;29;20055;-78
2024/01/16 10:27:31;;;;;;;9.38;3.92;;;;;;;;;;4784836;29;20509;-78
2024/01/16 10:29:57;;;;;;;6.20;3.58;;;;;;;;;;4793275;29;20107;-79
2024/01/16 10:32:31;;;;;;;9.57;3.85;;;;;;;;;;4803905;29;20051;-79
2024/01/16 10:35:04;;;;;;;13.95;4.40;;;;;;;;;;4800508;29;20115;-79
2024/01/16 10:37:41;;;;;;;10.25;4.10;;;;;;;;;;4799819;29;20062;-78
2024/01/16 10:40:07;;;;;;;10.10;3.80;;;;;;;;;;4796314;29;20067;-79
2024/01/16 10:42:34;;;;;;;9.18;3.20;;;;;;;;;;4797848;29;20551;-79
2024/01/16 10:45:00;;;;;;;9.88;3.72;;;;;;;;;;4789468;29;20050;-79
2024/01/16 10:47:27;;;;;;;8.52;3.88;;;;;;;;;;4808248;29;20046;-79
2024/01/16 10:49:53;;;;;;;9.27;4.28;;;;;;;;;;4794389;29;20061;-79
2024/01/16 10:52:24;;;;;;;9.70;3.78;;;;;;;;;;4798719;29;20409;-79
2024/01/16 10:54:51;;;;;;;11.95;4.00;;;;;;;;;;4793717;29;20104;-79
2024/01/16 10:57:17;;;;;;;10.25;4.05;;;;;;;;;;4804385;29;20086;-79
2024/01/16 10:59:56;;;;;;;11.15;3.63;;;;;;;;;;4793403;29;20511;-78
2024/01/16 11:02:24;;;;;;;10.25;4.13;;;;;;;;;;4791972;29;20058;-78
2024/01/16 11:04:52;;;;;;;15.15;3.72;;;;;;;;;;4799666;29;20738;-79
2024/01/16 11:07:19;;;;;;;11.18;3.80;;;;;;;;;;4801420;29;20138;-81
2024/01/16 11:09:47;;;;;;;12.15;3.45;;;;;;;;;;4809252;29;20061;-78
2024/01/16 11:12:16;;;;;;;8.88;3.20;;;;;;;;;;4797410;29;20075;-77
2024/01/16 11:14:45;;;;;;;10.45;3.38;;;;;;;;;;4792432;29;20068;-77
2024/01/16 11:17:17;;;;;;;8.63;3.03;;;;;;;;;;4798001;29;20046;-79
2024/01/16 11:19:44;;;;;;;6.53;2.85;;;;;;;;;;4796655;29;20508;-78
2024/01/16 11:22:32;;;;;;;6.93;3.22;;;;;;;;;;4802179;29;20065;-78
2024/01/16 11:25:09;;;;;;;8.27;3.42;;;;;;;;;;4797714;29;20058;-77
2024/01/16 11:27:36;;;;;;;13.82;3.42;;;;;;;;;;4801652;29;20042;-76
2024/01/16 11:30:03;;;;;;;8.20;3.03;;;;;;;;;;4799770;29;20156;-78
2024/01/16 11:32:34;;;;;;;8.75;3.30;;;;;;;;;;4796945;29;20146;-78
2024/01/16 11:35:05;;;;;;;8.10;3.42;;;;;;;;;;4801918;29;20059;-79
2024/01/16 11:37:33;;;;;;;9.90;3.20;;;;;;;;;;4797563;29;20079;-77
2024/01/16 11:40:21;;;;;;;9.10;3.10;;;;;;;;;;4789879;29;21092;-77
2024/01/16 11:42:49;;;;;;;11.75;3.50;;;;;;;;;;4797707;29;20101;-77
2024/01/16 11:45:42;;;;;;;5.40;2.90;;;;;;;;;;4801814;29;20053;-76
2024/01/16 11:48:12;;;;;;;10.52;3.80;;;;;;;;;;4804801;29;20119;-77
2024/01/16 11:50:39;;;;;;;7.10;2.63;;;;;;;;;;4801649;29;20078;-75
2024/01/16 11:53:06;;;;;;;8.88;3.47;;;;;;;;;;4809344;29;20059;-77
2024/01/16 11:55:41;;;;;;;7.10;2.95;;;;;;;;;;4793241;29;20222;-77
2024/01/16 11:58:13;;;;;;;7.63;3.03;;;;;;;;;;4806802;29;20057;-78
2024/01/16 12:00:41;;;;;;;9.77;3.33;;;;;;;;;;4803713;29;20113;-76
2024/01/16 12:03:08;;;;;;;12.03;3.90;;;;;;;;;;4812453;29;20051;-77
2024/01/16 12:05:37;;;;;;;6.45;3.00;;;;;;;;;;4805010;29;20083;-76
2024/01/16 12:08:05;;;;;;;6.55;2.92;;;;;;;;;;4787234;29;20091;-77
2024/01/16 12:10:32;;;;;;;11.75;3.30;;;;;;;;;;4797722;29;20107;-78
2024/01/16 12:12:58;;;;;;;7.68;3.33;;;;;;;;;;4815184;29;20050;-77
2024/01/16 12:15:30;;;;;;;10.60;3.08;;;;;;;;;;4806473;29;20062;-78
2024/01/16 12:17:59;;;;;;;10.57;3.30;;;;;;;;;;4813463;29;20441;-77
2024/01/16 12:20:30;;;;;;;6.00;2.90;;;;;;;;;;4797735;29;20527;-76
2024/01/16 12:22:56;;;;;;;11.57;4.07;;;;;;;;;;4802571;29;20081;-77
2024/01/16 12:25:24;;;;;;;13.93;2.75;;;;;;;;;;4811517;29;20055;-78
2024/01/16 12:28:10;;;;;;;9.85;3.15;;;;;;;;;;4799354;29;20135;-77
2024/01/16 12:30:37;;;;;;;6.95;3.05;;;;;;;;;;4803460;29;20129;-77
2024/01/16 12:33:06;;;;;;;9.35;3.30;;;;;;;;;;4798975;29;20054;-78
2024/01/16 12:35:37;;;;;;;5.97;3.38;;;;;;;;;;4786347;29;20129;-77
2024/01/16 12:38:10;;;;;;;7.03;2.95;;;;;;;;;;4791324;29;20055;-77
2024/01/16 12:40:39;;;;;;;10.95;3.58;;;;;;;;;;4801075;29;20051;-77
2024/01/16 12:43:06;;;;;;;7.80;3.17;;;;;;;;;;4794782;29;20059;-78
2024/01/16 12:45:33;;;;;;;10.07;3.50;;;;;;;;;;4814807;29;20055;-79
2024/01/16 12:48:00;;;;;;;9.95;3.63;;;;;;;;;;4793756;29;20063;-77
2024/01/16 12:50:29;;;;;;;9.25;3.63;;;;;;;;;;4810306;29;20049;-77
2024/01/16 12:53:09;;;;;;;7.50;2.97;;;;;;;;;;4799911;29;20047;-77
2024/01/16 12:55:39;;;;;;;9.65;3.30;;;;;;;;;;4795756;29;20464;-77
2024/01/16 12:58:19;;;;;;;10.05;3.50;;;;;;;;;;4796240;29;20059;-78
2024/01/16 13:00:49;;;;;;;6.80;2.80;;;;;;;;;;4786236;29;20062;-78
2024/01/16 13:03:26;;;;;;;11.55;3.20;;;;;;;;;;4799411;29;20059;-77
2024/01/16 13:05:56;;;;;;;9.85;3.63;;;;;;;;;;4793398;29;20062;-76
2024/01/16 13:08:26;;;;;;;11.38;3.10;;;;;;;;;;4800192;29;20051;-76
2024/01/16 13:11:06;;;;;;;11.70;3.47;;;;;;;;;;4802209;29;20039;-77
2024/01/16 13:13:33;;;;;;;8.27;3.33;;;;;;;;;;4803932;29;20138;-77
2024/01/16 13:16:00;;;;;;;6.88;3.33;;;;;;;;;;4799583;29;20157;-77
2024/01/16 13:18:29;;;;;;;8.93;3.30;;;;;;;;;;4794027;29;20104;-76
2024/01/16 13:20:56;;;;;;;8.18;3.05;;;;;;;;;;4799102;29;20047;-77
2024/01/16 13:23:26;;;;;;;5.65;3.42;;;;;;;;;;4793742;29;20260;-78
2024/01/16 13:25:55;;;;;;;8.63;3.38;;;;;;;;;;4806605;29;20053;-80
2024/01/16 13:28:21;;;;;;;;;;;;;;;;;;4811382;29;20428;-77
2024/01/16 13:30:52;;;;;;;8.40;3.42;;;;;;;;;;4792142;29;19981;-79
2024/01/16 13:33:18;;;;;;;9.70;2.80;;;;;;;;;;4789214;29;20054;-79
2024/01/16 13:35:49;;;;;;;11.48;3.10;;;;;;;;;;4794127;29;20051;-79
2024/01/16 13:38:16;;;;;;;9.45;3.20;;;;;;;;;;4808974;29;20058;-79
2024/01/16 13:40:43;;;;;;;8.02;3.10;;;;;;;;;;4809625;29;20051;-79
2024/01/16 13:43:09;;;;;;;10.95;3.28;;;;;;;;;;4777909;29;20082;-77
2024/01/16 13:45:36;;;;;;;9.73;3.08;;;;;;;;;;4791188;29;20059;-79
2024/01/16 13:48:02;;;;;;;10.45;3.28;;;;;;;;;;4787640;29;20458;-79
2024/01/16 13:50:30;;;;;;;10.55;3.72;;;;;;;;;;4786389;29;20054;-79
2024/01/16 13:52:57;;;;;;;10.82;3.08;;;;;;;;;;4784362;29;20144;-78
2024/01/16 13:55:23;;;;;;;9.25;2.90;;;;;;;;;;4795430;29;20126;-78
2024/01/16 13:57:50;;;;;;;5.63;3.00;;;;;;;;;;4796653;29;20055;-78
2024/01/16 14:00:18;;;;;;;7.72;3.20;;;;;;;;;;4784133;29;20051;-78
2024/01/16 14:02:45;;;;;;;10.48;3.50;;;;;;;;;;4793554;29;20715;-79
2024/01/16 14:05:17;;;;;;;8.10;3.10;;;;;;;;;;4777134;29;20138;-79
2024/01/16 14:07:54;;;;;;;6.30;2.97;;;;;;;;;;4800098;29;20047;-78
2024/01/16 14:10:21;;;;;;;7.80;2.92;;;;;;;;;;4783480;29;20470;-79
2024/01/16 14:12:49;;;;;;;10.75;3.13;;;;;;;;;;4793920;29;20058;-79
2024/01/16 14:15:18;;;;;;;9.55;3.03;;;;;;;;;;4796395;29;20054;-78
2024/01/16 14:17:45;;;;;;;5.88;3.10;;;;;;;;;;4791688;29;20058;-78
2024/01/16 14:20:12;;;;;;;15.68;3.00;;;;;;;;;;4794338;29;20055;-78
2024/01/16 14:22:39;;;;;;;7.53;3.15;;;;;;;;;;4789650;29;20138;-79
2024/01/16 14:25:12;;;;;;;10.70;2.75;;;;;;;;;;4797071;29;20131;-79
2024/01/16 14:27:39;;;;;;;8.38;2.67;;;;;;;;;;4799041;29;20056;-79
2024/01/16 14:30:07;;;;;;;7.50;2.90;;;;;;;;;;4790519;29;20055;-79
2024/01/16 14:32:34;;;;;;;10.25;3.38;;;;;;;;;;4804543;29;20141;-80
2024/01/16 14:35:00;;;;;;;6.82;2.90;;;;;;;;;;4788061;29;20058;-78
2024/01/16 14:37:27;;;;;;;10.40;3.08;;;;;;;;;;4811364;29;20054;-79
2024/01/16 14:39:54;;;;;;;5.60;2.65;;;;;;;;;;4797255;29;20168;-79
2024/01/16 14:42:22;;;;;;;8.32;2.75;;;;;;;;;;4793509;29;20133;-78